createdAt,value
2018-09-19T00:00:05.557Z,18.73
2018-09-19T00:01:06.447Z,18.72
2018-09-19T00:02:07.318Z,18.72
2018-09-19T00:03:07.493Z,18.71
2018-09-19T00:04:08.102Z,18.71
2018-09-19T00:05:08.572Z,18.70
2018-09-19T00:06:09.252Z,18.70
2018-09-19T00:07:09.269Z,18.69
2018-09-19T00:08:09.682Z,18.69
2018-09-19T00:09:10.470Z,18.68
2018-09-19T00:10:10.834Z,18.67
2018-09-19T00:11:11.760Z,18.67
2018-09-19T00:12:12.108Z,18.66
2018-09-19T00:13:12.457Z,18.65
2018-09-19T00:14:12.856Z,18.64
2018-09-19T00:15:13.105Z,18.63
2018-09-19T00:15:21.614Z,18.44
2018-09-19T00:16:22.763Z,18.44
2018-09-19T00:17:23.061Z,18.44
2018-09-19T00:18:23.313Z,18.44
2018-09-19T00:19:23.712Z,18.43
2018-09-19T00:20:24.232Z,18.42
2018-09-19T00:21:24.343Z,18.42
2018-09-19T00:22:24.664Z,18.41
2018-09-19T00:23:24.888Z,18.40
2018-09-19T00:24:25.125Z,18.39
2018-09-19T00:25:25.771Z,18.38
2018-09-19T00:26:26.100Z,18.37
2018-09-19T00:27:26.258Z,18.35
2018-09-19T00:28:26.484Z,18.35
2018-09-19T00:29:26.646Z,18.34
2018-09-19T00:30:26.965Z,18.34
2018-09-19T00:31:27.279Z,18.33
2018-09-19T00:32:28.080Z,18.32
2018-09-19T00:33:28.305Z,18.31
2018-09-19T00:34:28.587Z,18.30
2018-09-19T00:35:29.466Z,18.29
2018-09-19T00:36:29.723Z,18.28
2018-09-19T00:37:30.160Z,18.27
2018-09-19T00:38:30.682Z,18.26
2018-09-19T00:39:31.119Z,18.24
2018-09-19T00:40:32.020Z,18.23
2018-09-19T00:41:32.380Z,18.22
2018-09-19T00:42:32.687Z,18.21
2018-09-19T00:43:33.217Z,18.20
2018-09-19T00:44:33.625Z,18.19
2018-09-19T00:45:33.895Z,18.18
2018-09-19T00:46:34.441Z,18.17
2018-09-19T00:47:33.699Z,18.16
2018-09-19T00:48:35.498Z,18.15
2018-09-19T00:49:35.860Z,18.15
2018-09-19T00:50:36.356Z,18.14
2018-09-19T00:51:36.808Z,18.14
2018-09-19T00:52:36.888Z,18.13
2018-09-19T00:53:37.242Z,18.12
2018-09-19T00:54:38.048Z,18.12
2018-09-19T00:55:38.423Z,18.12
2018-09-19T00:56:38.898Z,18.11
2018-09-19T00:57:39.112Z,18.11
2018-09-19T00:58:39.389Z,18.11
2018-09-19T00:59:39.626Z,18.11
2018-09-19T00:59:47.958Z,18.16
2018-09-19T01:00:49.226Z,18.16
2018-09-19T01:01:49.465Z,18.16
2018-09-19T01:02:49.705Z,18.16
2018-09-19T01:03:50.329Z,18.16
2018-09-19T01:04:51.104Z,18.16
2018-09-19T01:05:51.952Z,18.16
2018-09-19T01:06:52.964Z,18.16
2018-09-19T01:07:53.330Z,18.16
2018-09-19T01:08:53.749Z,18.16
2018-09-19T01:09:54.085Z,18.15
2018-09-19T01:10:54.486Z,18.15
2018-09-19T01:11:55.317Z,18.14
2018-09-19T01:12:55.536Z,18.13
2018-09-19T01:13:55.783Z,18.13
2018-09-19T01:14:56.253Z,18.12
2018-09-19T01:15:57.052Z,18.12
2018-09-19T01:16:57.388Z,18.11
2018-09-19T01:17:57.791Z,18.10
2018-09-19T01:18:57.887Z,18.09
2018-09-19T01:19:58.630Z,18.08
2018-09-19T01:20:59.252Z,18.06
2018-09-19T01:21:59.680Z,18.04
2018-09-19T01:23:00.494Z,18.01
2018-09-19T01:24:01.359Z,17.99
2018-09-19T01:25:01.903Z,17.96
2018-09-19T01:26:02.113Z,17.94
2018-09-19T01:27:02.526Z,17.92
2018-09-19T01:28:03.289Z,17.91
2018-09-19T01:29:03.459Z,17.89
2018-09-19T01:30:03.753Z,17.87
2018-09-19T01:31:04.093Z,17.85
2018-09-19T01:32:04.369Z,17.83
2018-09-19T01:33:04.787Z,17.82
2018-09-19T01:34:05.126Z,17.80
2018-09-19T01:35:05.864Z,17.79
2018-09-19T01:36:06.145Z,17.78
2018-09-19T01:37:06.487Z,17.77
2018-09-19T01:38:06.737Z,17.76
2018-09-19T01:39:07.169Z,17.76
2018-09-19T01:40:07.318Z,17.75
2018-09-19T01:41:07.601Z,17.75
2018-09-19T01:42:08.221Z,17.75
2018-09-19T01:43:08.671Z,17.74
2018-09-19T01:44:08.968Z,17.74
2018-09-19T01:45:09.739Z,17.73
2018-09-19T01:45:17.836Z,17.71
2018-09-19T01:46:19.161Z,17.71
2018-09-19T01:47:19.415Z,17.71
2018-09-19T01:48:20.359Z,17.71
2018-09-19T01:49:20.540Z,17.71
2018-09-19T01:50:20.808Z,17.71
2018-09-19T01:51:20.997Z,17.71
2018-09-19T01:52:21.224Z,17.71
2018-09-19T01:53:21.602Z,17.71
2018-09-19T01:54:22.075Z,17.71
2018-09-19T01:55:22.294Z,17.71
2018-09-19T01:56:22.545Z,17.71
2018-09-19T01:57:23.045Z,17.71
2018-09-19T01:58:22.308Z,17.71
2018-09-19T01:59:23.635Z,17.72
2018-09-19T02:00:24.031Z,17.72
2018-09-19T02:01:24.509Z,17.71
2018-09-19T02:02:24.749Z,17.71
2018-09-19T02:03:24.979Z,17.70
2018-09-19T02:04:25.359Z,17.70
2018-09-19T02:05:25.714Z,17.69
2018-09-19T02:06:26.023Z,17.69
2018-09-19T02:07:26.443Z,17.68
2018-09-19T02:08:27.186Z,17.67
2018-09-19T02:09:27.682Z,17.66
2018-09-19T02:10:28.537Z,17.65
2018-09-19T02:11:28.806Z,17.64
2018-09-19T02:12:29.056Z,17.63
2018-09-19T02:13:29.355Z,17.62
2018-09-19T02:14:29.551Z,17.61
2018-09-19T02:15:29.884Z,17.60
2018-09-19T02:16:30.163Z,17.59
2018-09-19T02:17:30.527Z,17.58
2018-09-19T02:18:30.889Z,17.56
2018-09-19T02:19:31.860Z,17.55
2018-09-19T02:20:32.072Z,17.53
2018-09-19T02:21:32.549Z,17.51
2018-09-19T02:22:32.713Z,17.50
2018-09-19T02:23:33.051Z,17.49
2018-09-19T02:24:33.369Z,17.47
2018-09-19T02:25:33.752Z,17.46
2018-09-19T02:26:34.015Z,17.44
2018-09-19T02:27:34.157Z,17.43
2018-09-19T02:28:34.556Z,17.42
2018-09-19T02:29:33.705Z,17.41
2018-09-19T02:30:34.930Z,17.40
2018-09-19T02:30:43.471Z,17.27
2018-09-19T02:31:43.645Z,17.27
2018-09-19T02:32:44.945Z,17.27
2018-09-19T02:33:45.211Z,17.27
2018-09-19T02:34:45.402Z,17.26
2018-09-19T02:35:45.797Z,17.25
2018-09-19T02:36:46.703Z,17.25
2018-09-19T02:37:46.980Z,17.24
2018-09-19T02:38:47.814Z,17.24
2018-09-19T02:39:48.028Z,17.23
2018-09-19T02:40:48.645Z,17.22
2018-09-19T02:41:48.959Z,17.22
2018-09-19T02:42:49.287Z,17.22
2018-09-19T02:43:50.236Z,17.22
2018-09-19T02:44:50.647Z,17.21
2018-09-19T02:45:51.091Z,17.21
2018-09-19T02:46:51.629Z,17.20
2018-09-19T02:47:51.925Z,17.20
2018-09-19T02:48:52.663Z,17.19
2018-09-19T02:49:53.061Z,17.19
2018-09-19T02:50:52.393Z,17.18
2018-09-19T02:51:54.012Z,17.17
2018-09-19T02:52:54.775Z,17.16
2018-09-19T02:53:56.142Z,17.15
2018-09-19T02:54:55.351Z,17.14
2018-09-19T02:55:54.735Z,17.13
2018-09-19T02:56:56.104Z,17.12
2018-09-19T02:57:56.375Z,17.11
2018-09-19T02:58:56.653Z,17.10
2018-09-19T02:59:57.273Z,17.10
2018-09-19T03:00:57.611Z,17.09
2018-09-19T03:01:58.095Z,17.08
2018-09-19T03:02:58.405Z,17.07
2018-09-19T03:03:58.664Z,17.07
2018-09-19T03:04:58.881Z,17.06
2018-09-19T03:05:59.236Z,17.05
2018-09-19T03:06:59.586Z,17.05
2018-09-19T03:07:59.855Z,17.04
2018-09-19T03:09:00.046Z,17.03
2018-09-19T03:10:00.283Z,17.03
2018-09-19T03:11:00.475Z,17.03
2018-09-19T03:12:00.674Z,17.02
2018-09-19T03:13:00.903Z,17.01
2018-09-19T03:14:01.095Z,17.00
2018-09-19T03:15:01.375Z,16.98
2018-09-19T03:16:01.794Z,16.97
2018-09-19T03:16:10.335Z,16.74
2018-09-19T03:17:11.689Z,16.73
2018-09-19T03:18:10.962Z,16.73
2018-09-19T03:19:12.238Z,16.73
2018-09-19T03:20:12.576Z,16.73
2018-09-19T03:21:12.785Z,16.73
2018-09-19T03:22:13.056Z,16.73
2018-09-19T03:23:13.333Z,16.74
2018-09-19T03:24:13.646Z,16.73
2018-09-19T03:25:14.121Z,16.74
2018-09-19T03:26:14.347Z,16.73
2018-09-19T03:27:14.893Z,16.73
2018-09-19T03:28:15.614Z,16.73
2018-09-19T03:29:15.863Z,16.73
2018-09-19T03:30:16.316Z,16.74
2018-09-19T03:31:15.521Z,16.74
2018-09-19T03:32:16.809Z,16.74
2018-09-19T03:33:16.961Z,16.74
2018-09-19T03:34:17.833Z,16.74
2018-09-19T03:35:17.352Z,16.74
2018-09-19T03:36:16.581Z,16.74
2018-09-19T03:37:17.986Z,16.73
2018-09-19T03:38:17.135Z,16.73
2018-09-19T03:39:18.641Z,16.72
2018-09-19T03:40:19.195Z,16.71
2018-09-19T03:41:19.452Z,16.71
2018-09-19T03:42:19.674Z,16.70
2018-09-19T03:43:19.869Z,16.69
2018-09-19T03:44:20.349Z,16.69
2018-09-19T03:45:20.711Z,16.68
2018-09-19T03:46:21.051Z,16.67
2018-09-19T03:47:21.370Z,16.67
2018-09-19T03:48:21.684Z,16.66
2018-09-19T03:49:21.923Z,16.65
2018-09-19T03:50:22.560Z,16.65
2018-09-19T03:51:22.766Z,16.63
2018-09-19T03:52:23.146Z,16.62
2018-09-19T03:53:23.400Z,16.61
2018-09-19T03:54:23.573Z,16.60
2018-09-19T03:55:23.989Z,16.59
2018-09-19T03:56:24.179Z,16.58
2018-09-19T03:57:24.579Z,16.57
2018-09-19T03:58:24.801Z,16.55
2018-09-19T03:59:24.074Z,16.54
2018-09-19T04:00:25.308Z,16.53
2018-09-19T04:01:25.730Z,16.52
2018-09-19T04:02:26.034Z,16.50
2018-09-19T04:03:25.272Z,16.49
2018-09-19T04:04:26.515Z,16.47
2018-09-19T04:04:34.848Z,16.23
2018-09-19T04:05:36.138Z,16.23
2018-09-19T04:06:36.339Z,16.23
2018-09-19T04:07:36.558Z,16.23
2018-09-19T04:08:36.891Z,16.23
2018-09-19T04:09:37.271Z,16.23
2018-09-19T04:10:37.542Z,16.23
2018-09-19T04:11:37.898Z,16.22
2018-09-19T04:12:38.087Z,16.22
2018-09-19T04:13:38.402Z,16.22
2018-09-19T04:14:38.624Z,16.21
2018-09-19T04:15:38.805Z,16.20
2018-09-19T04:16:39.063Z,16.19
2018-09-19T04:17:39.352Z,16.18
2018-09-19T04:18:39.047Z,16.17
2018-09-19T04:19:39.277Z,16.17
2018-09-19T04:20:40.444Z,16.16
2018-09-19T04:21:40.712Z,16.15
2018-09-19T04:22:40.941Z,16.14
2018-09-19T04:23:41.361Z,16.13
2018-09-19T04:24:41.564Z,16.12
2018-09-19T04:25:42.150Z,16.11
2018-09-19T04:26:42.429Z,16.09
2018-09-19T04:27:42.774Z,16.08
2018-09-19T04:28:43.041Z,16.08
2018-09-19T04:29:42.628Z,16.06
2018-09-19T04:30:44.140Z,16.05
2018-09-19T04:31:44.297Z,16.04
2018-09-19T04:32:44.518Z,16.03
2018-09-19T04:33:44.794Z,16.01
2018-09-19T04:34:45.100Z,16.00
2018-09-19T04:35:45.321Z,15.99
2018-09-19T04:36:45.675Z,15.98
2018-09-19T04:37:46.018Z,15.97
2018-09-19T04:38:46.726Z,15.95
2018-09-19T04:39:46.975Z,15.94
2018-09-19T04:40:47.466Z,15.93
2018-09-19T04:41:47.597Z,15.92
2018-09-19T04:42:47.799Z,15.90
2018-09-19T04:43:47.954Z,15.89
2018-09-19T04:44:48.086Z,15.88
2018-09-19T04:45:48.188Z,15.86
2018-09-19T04:46:48.361Z,15.85
2018-09-19T04:47:48.983Z,15.84
2018-09-19T04:48:49.253Z,15.83
2018-09-19T04:49:49.685Z,15.83
2018-09-19T04:50:49.884Z,15.82
2018-09-19T04:50:58.235Z,15.78
2018-09-19T04:51:59.556Z,15.78
2018-09-19T04:52:59.756Z,15.78
2018-09-19T04:54:00.028Z,15.78
2018-09-19T04:55:00.197Z,15.78
2018-09-19T04:56:00.378Z,15.78
2018-09-19T04:57:00.519Z,15.78
2018-09-19T04:58:00.749Z,15.78
2018-09-19T04:59:00.924Z,15.78
2018-09-19T05:00:01.360Z,15.78
2018-09-19T05:01:01.598Z,15.78
2018-09-19T05:02:01.819Z,15.78
2018-09-19T05:03:01.940Z,15.77
2018-09-19T05:04:02.274Z,15.77
2018-09-19T05:05:02.390Z,15.76
2018-09-19T05:06:02.626Z,15.76
2018-09-19T05:07:03.046Z,15.75
2018-09-19T05:08:03.285Z,15.75
2018-09-19T05:09:03.374Z,15.75
2018-09-19T05:10:03.750Z,15.75
2018-09-19T05:11:02.964Z,15.75
2018-09-19T05:12:04.253Z,15.75
2018-09-19T05:13:04.603Z,15.75
2018-09-19T05:14:04.729Z,15.75
2018-09-19T05:15:05.232Z,15.75
2018-09-19T05:16:05.453Z,15.76
2018-09-19T05:17:05.611Z,15.76
2018-09-19T05:18:05.806Z,15.77
2018-09-19T05:19:06.250Z,15.77
2018-09-19T05:20:06.538Z,15.78
2018-09-19T05:21:06.787Z,15.78
2018-09-19T05:22:07.093Z,15.78
2018-09-19T05:23:07.562Z,15.78
2018-09-19T05:24:07.821Z,15.78
2018-09-19T05:25:08.096Z,15.78
2018-09-19T05:26:08.428Z,15.78
2018-09-19T05:27:08.889Z,15.78
2018-09-19T05:28:09.478Z,15.78
2018-09-19T05:29:10.168Z,15.77
2018-09-19T05:30:10.815Z,15.77
2018-09-19T05:31:11.021Z,15.77
2018-09-19T05:32:11.333Z,15.77
2018-09-19T05:33:11.708Z,15.77
2018-09-19T05:33:20.035Z,15.78
2018-09-19T05:34:21.492Z,15.78
2018-09-19T05:35:21.846Z,15.78
2018-09-19T05:36:22.222Z,15.79
2018-09-19T05:37:22.540Z,15.79
2018-09-19T05:38:22.893Z,15.80
2018-09-19T05:39:23.472Z,15.80
2018-09-19T05:40:23.635Z,15.80
2018-09-19T05:41:24.055Z,15.81
2018-09-19T05:42:24.611Z,15.81
2018-09-19T05:43:25.112Z,15.82
2018-09-19T05:44:25.414Z,15.82
2018-09-19T05:45:25.830Z,15.83
2018-09-19T05:46:26.367Z,15.83
2018-09-19T05:47:25.599Z,15.83
2018-09-19T05:48:26.904Z,15.83
2018-09-19T05:49:27.253Z,15.83
2018-09-19T05:50:27.490Z,15.83
2018-09-19T05:51:27.805Z,15.84
2018-09-19T05:52:28.092Z,15.84
2018-09-19T05:53:28.375Z,15.84
2018-09-19T05:54:28.701Z,15.85
2018-09-19T05:55:27.947Z,15.85
2018-09-19T05:56:28.295Z,15.85
2018-09-19T05:57:29.648Z,15.85
2018-09-19T05:58:30.097Z,15.85
2018-09-19T05:59:30.456Z,15.85
2018-09-19T06:00:31.330Z,15.85
2018-09-19T06:01:31.834Z,15.84
2018-09-19T06:02:32.296Z,15.84
2018-09-19T06:03:31.719Z,15.84
2018-09-19T06:04:33.064Z,15.84
2018-09-19T06:05:32.355Z,15.85
2018-09-19T06:06:33.724Z,15.85
2018-09-19T06:07:34.243Z,15.84
2018-09-19T06:08:34.649Z,15.84
2018-09-19T06:09:35.301Z,15.84
2018-09-19T06:10:35.635Z,15.85
2018-09-19T06:11:36.170Z,15.85
2018-09-19T06:12:37.135Z,15.85
2018-09-19T06:13:37.593Z,15.86
2018-09-19T06:14:37.968Z,15.86
2018-09-19T06:15:38.794Z,15.86
2018-09-19T06:16:39.306Z,15.87
2018-09-19T06:17:39.643Z,15.88
2018-09-19T06:18:40.077Z,15.88
2018-09-19T06:19:40.438Z,15.89
2018-09-19T06:20:40.894Z,15.90
2018-09-19T06:21:41.332Z,15.91
2018-09-19T06:21:49.667Z,16.08
2018-09-19T06:22:51.135Z,16.08
2018-09-19T06:23:51.415Z,16.08
2018-09-19T06:24:51.971Z,16.08
2018-09-19T06:25:52.499Z,16.09
2018-09-19T06:26:52.894Z,16.09
2018-09-19T06:27:52.244Z,16.10
2018-09-19T06:28:53.650Z,16.11
2018-09-19T06:29:54.147Z,16.11
2018-09-19T06:30:54.417Z,16.11
2018-09-19T06:31:54.770Z,16.12
2018-09-19T06:32:55.100Z,16.13
2018-09-19T06:33:54.407Z,16.14
2018-09-19T06:34:55.882Z,16.15
2018-09-19T06:35:56.174Z,16.16
2018-09-19T06:36:56.424Z,16.18
2018-09-19T06:37:55.971Z,16.20
2018-09-19T06:38:57.416Z,16.21
2018-09-19T06:39:57.813Z,16.23
2018-09-19T06:40:57.397Z,16.24
2018-09-19T06:41:57.648Z,16.26
2018-09-19T06:42:57.925Z,16.28
2018-09-19T06:43:59.196Z,16.30
2018-09-19T06:44:59.627Z,16.32
2018-09-19T06:45:59.978Z,16.34
2018-09-19T06:47:00.485Z,16.36
2018-09-19T06:47:59.835Z,16.38
2018-09-19T06:49:01.273Z,16.40
2018-09-19T06:50:01.568Z,16.42
2018-09-19T06:51:01.854Z,16.45
2018-09-19T06:52:02.264Z,16.47
2018-09-19T06:53:01.533Z,16.49
2018-09-19T06:54:02.886Z,16.51
2018-09-19T06:55:03.214Z,16.53
2018-09-19T06:56:03.482Z,16.55
2018-09-19T06:57:03.795Z,16.57
2018-09-19T06:58:04.105Z,16.58
2018-09-19T06:59:04.956Z,16.59
2018-09-19T07:00:05.513Z,16.61
2018-09-19T07:01:06.003Z,16.62
2018-09-19T07:02:06.316Z,16.64
2018-09-19T07:03:06.775Z,16.66
2018-09-19T07:04:07.078Z,16.67
2018-09-19T07:05:07.564Z,16.69
2018-09-19T07:06:07.820Z,16.71
2018-09-19T07:07:07.250Z,16.73
2018-09-19T07:08:08.864Z,16.76
2018-09-19T07:08:17.348Z,17.20
2018-09-19T07:09:18.878Z,17.19
2018-09-19T07:10:19.415Z,17.20
2018-09-19T07:11:19.972Z,17.20
2018-09-19T07:12:20.274Z,17.20
2018-09-19T07:13:20.777Z,17.20
2018-09-19T07:14:21.167Z,17.21
2018-09-19T07:15:21.396Z,17.22
2018-09-19T07:16:21.717Z,17.22
2018-09-19T07:17:21.928Z,17.24
2018-09-19T07:18:22.174Z,17.25
2018-09-19T07:19:22.785Z,17.26
2018-09-19T07:20:23.402Z,17.27
2018-09-19T07:21:24.175Z,17.29
2018-09-19T07:22:25.082Z,17.31
2018-09-19T07:23:25.580Z,17.33
2018-09-19T07:24:25.810Z,17.35
2018-09-19T07:25:26.210Z,17.38
2018-09-19T07:26:25.668Z,17.41
2018-09-19T07:27:25.695Z,17.44
2018-09-19T07:28:26.959Z,17.48
2018-09-19T07:29:27.459Z,17.53
2018-09-19T07:30:27.746Z,17.61
2018-09-19T07:31:28.073Z,17.72
2018-09-19T07:32:28.386Z,17.85
2018-09-19T07:33:28.689Z,18.02
2018-09-19T07:34:29.125Z,18.21
2018-09-19T07:35:29.440Z,18.42
2018-09-19T07:36:30.402Z,18.64
2018-09-19T07:37:30.655Z,18.89
2018-09-19T07:38:31.044Z,19.15
2018-09-19T07:39:31.408Z,19.43
2018-09-19T07:40:31.831Z,19.70
2018-09-19T07:41:31.205Z,19.99
2018-09-19T07:42:32.431Z,20.30
2018-09-19T07:43:33.003Z,20.60
2018-09-19T07:44:33.665Z,20.88
2018-09-19T07:45:33.946Z,21.15
2018-09-19T07:46:34.502Z,21.41
2018-09-19T07:47:33.805Z,21.68
2018-09-19T07:48:35.167Z,21.94
2018-09-19T07:49:35.442Z,22.21
2018-09-19T07:50:35.746Z,22.51
2018-09-19T07:51:36.177Z,22.79
2018-09-19T07:52:36.631Z,23.05
2018-09-19T07:52:45.006Z,26.82
2018-09-19T07:53:46.259Z,26.81
2018-09-19T07:54:46.767Z,26.83
2018-09-19T07:55:46.486Z,26.86
2018-09-19T07:56:46.970Z,26.89
2018-09-19T07:57:48.207Z,26.91
2018-09-19T07:58:48.647Z,26.91
2018-09-19T07:59:49.111Z,26.92
2018-09-19T08:00:48.795Z,26.95
2018-09-19T08:01:48.877Z,26.98
2018-09-19T08:02:50.241Z,27.03
2018-09-19T08:03:50.559Z,27.08
2018-09-19T08:04:51.290Z,27.13
2018-09-19T08:05:51.625Z,27.18
2018-09-19T08:06:52.010Z,27.23
2018-09-19T08:07:52.361Z,27.26
2018-09-19T08:08:52.834Z,27.30
2018-09-19T08:09:52.078Z,27.38
2018-09-19T08:10:53.424Z,27.48
2018-09-19T08:11:53.848Z,27.56
2018-09-19T08:12:54.044Z,27.65
2018-09-19T08:13:54.415Z,27.74
2018-09-19T08:14:54.996Z,27.82
2018-09-19T08:15:55.407Z,27.88
2018-09-19T08:16:55.680Z,27.96
2018-09-19T08:17:55.024Z,28.02
2018-09-19T08:18:56.385Z,28.06
2018-09-19T08:19:56.898Z,28.12
2018-09-19T08:20:57.299Z,28.19
2018-09-19T08:21:57.866Z,28.26
2018-09-19T08:22:58.177Z,28.32
2018-09-19T08:23:58.607Z,28.40
2018-09-19T08:24:58.996Z,28.47
2018-09-19T08:25:59.697Z,28.54
2018-09-19T08:26:59.911Z,28.60
2018-09-19T08:28:00.589Z,28.66
2018-09-19T08:29:00.931Z,28.71
2018-09-19T08:30:01.376Z,28.76
2018-09-19T08:31:01.603Z,28.80
2018-09-19T08:32:01.865Z,28.83
2018-09-19T08:33:02.540Z,28.87
2018-09-19T08:34:02.716Z,28.90
2018-09-19T08:35:02.840Z,28.93
2018-09-19T08:36:03.050Z,28.96
2018-09-19T08:37:03.310Z,28.96
2018-09-19T08:38:03.558Z,28.97
2018-09-19T08:39:03.784Z,28.97
2018-09-19T08:40:04.015Z,28.96
2018-09-19T08:41:04.655Z,28.95
2018-09-19T08:41:13.106Z,28.99
2018-09-19T08:42:14.429Z,28.99
2018-09-19T08:43:14.696Z,28.99
2018-09-19T08:44:14.969Z,29.00
2018-09-19T08:45:15.330Z,29.02
2018-09-19T08:46:15.551Z,29.05
2018-09-19T08:47:15.807Z,29.08
2018-09-19T08:48:16.049Z,29.12
2018-09-19T08:49:16.307Z,29.15
2018-09-19T08:50:16.822Z,29.17
2018-09-19T08:51:17.188Z,29.20
2018-09-19T08:52:17.725Z,29.22
2018-09-19T08:53:17.967Z,29.26
2018-09-19T08:54:18.339Z,29.29
2018-09-19T08:55:18.707Z,29.32
2018-09-19T08:56:19.232Z,29.35
2018-09-19T08:57:19.519Z,29.38
2018-09-19T08:58:18.734Z,29.42
2018-09-19T08:59:20.169Z,29.45
2018-09-19T09:00:20.446Z,29.49
2018-09-19T09:01:20.767Z,29.53
2018-09-19T09:02:20.950Z,29.54
2018-09-19T09:03:21.179Z,29.54
2018-09-19T09:04:21.506Z,29.54
2018-09-19T09:05:21.735Z,29.53
2018-09-19T09:06:21.050Z,29.53
2018-09-19T09:07:22.445Z,29.53
2018-09-19T09:08:23.128Z,29.54
2018-09-19T09:09:23.448Z,29.55
2018-09-19T09:10:23.848Z,29.55
2018-09-19T09:11:24.334Z,29.56
2018-09-19T09:12:24.865Z,29.56
2018-09-19T09:13:24.145Z,29.57
2018-09-19T09:14:25.609Z,29.57
2018-09-19T09:15:25.823Z,29.57
2018-09-19T09:16:26.057Z,29.56
2018-09-19T09:17:26.322Z,29.53
2018-09-19T09:18:26.558Z,29.50
2018-09-19T09:19:27.031Z,29.45
2018-09-19T09:20:27.318Z,29.39
2018-09-19T09:21:27.757Z,29.33
2018-09-19T09:22:28.026Z,29.27
2018-09-19T09:23:28.330Z,29.20
2018-09-19T09:24:29.338Z,29.15
2018-09-19T09:25:29.674Z,29.10
2018-09-19T09:26:29.932Z,29.05
2018-09-19T09:27:30.289Z,29.01
2018-09-19T09:27:38.629Z,28.30
2018-09-19T09:28:39.772Z,28.30
2018-09-19T09:29:40.093Z,28.30
2018-09-19T09:30:39.335Z,28.30
2018-09-19T09:31:40.471Z,28.30
2018-09-19T09:32:40.668Z,28.30
2018-09-19T09:33:41.031Z,28.31
2018-09-19T09:34:41.378Z,28.32
2018-09-19T09:35:40.590Z,28.32
2018-09-19T09:36:42.198Z,28.33
2018-09-19T09:37:41.441Z,28.35
2018-09-19T09:38:42.691Z,28.37
2018-09-19T09:39:42.987Z,28.38
2018-09-19T09:40:43.265Z,28.39
2018-09-19T09:41:43.539Z,28.40
2018-09-19T09:42:43.853Z,28.41
2018-09-19T09:43:44.296Z,28.42
2018-09-19T09:44:44.584Z,28.43
2018-09-19T09:45:45.150Z,28.44
2018-09-19T09:46:44.378Z,28.45
2018-09-19T09:47:46.195Z,28.46
2018-09-19T09:48:46.749Z,28.47
2018-09-19T09:49:46.857Z,28.46
2018-09-19T09:50:47.345Z,28.47
2018-09-19T09:51:47.767Z,28.46
2018-09-19T09:52:48.063Z,28.45
2018-09-19T09:53:48.685Z,28.44
2018-09-19T09:54:49.141Z,28.43
2018-09-19T09:55:49.352Z,28.40
2018-09-19T09:56:49.517Z,28.37
2018-09-19T09:57:49.858Z,28.36
2018-09-19T09:58:50.111Z,28.35
2018-09-19T09:59:50.493Z,28.33
2018-09-19T10:00:51.333Z,28.32
2018-09-19T10:01:50.530Z,28.30
2018-09-19T10:02:51.862Z,28.28
2018-09-19T10:03:52.046Z,28.26
2018-09-19T10:04:52.455Z,28.24
2018-09-19T10:05:52.729Z,28.23
2018-09-19T10:06:53.406Z,28.22
2018-09-19T10:07:53.627Z,28.21
2018-09-19T10:08:53.798Z,28.20
2018-09-19T10:09:53.967Z,28.19
2018-09-19T10:10:54.253Z,28.18
2018-09-19T10:11:54.732Z,28.17
2018-09-19T10:12:02.804Z,28.01
2018-09-19T10:13:04.026Z,28.01
2018-09-19T10:14:04.223Z,28.02
2018-09-19T10:15:05.138Z,28.03
2018-09-19T10:16:05.458Z,28.04
2018-09-19T10:17:05.698Z,28.06
2018-09-19T10:18:06.029Z,28.08
2018-09-19T10:19:06.202Z,28.09
2018-09-19T10:20:06.793Z,28.10
2018-09-19T10:21:07.184Z,28.12
2018-09-19T10:22:07.677Z,28.14
2018-09-19T10:23:07.951Z,28.16
2018-09-19T10:24:08.252Z,28.18
2018-09-19T10:25:08.679Z,28.19
2018-09-19T10:26:08.899Z,28.20
2018-09-19T10:27:09.386Z,28.21
2018-09-19T10:28:09.804Z,28.22
2018-09-19T10:29:10.095Z,28.23
2018-09-19T10:30:10.317Z,28.23
2018-09-19T10:31:11.085Z,28.23
2018-09-19T10:32:11.341Z,28.23
2018-09-19T10:33:11.570Z,28.23
2018-09-19T10:34:11.943Z,28.23
2018-09-19T10:35:12.398Z,28.24
2018-09-19T10:36:13.006Z,28.24
2018-09-19T10:37:13.581Z,28.23
2018-09-19T10:38:14.012Z,28.23
2018-09-19T10:39:14.972Z,28.22
2018-09-19T10:40:14.176Z,28.19
2018-09-19T10:41:15.354Z,28.17
2018-09-19T10:42:15.752Z,28.16
2018-09-19T10:43:16.128Z,28.14
2018-09-19T10:44:16.421Z,28.11
2018-09-19T10:45:16.649Z,28.09
2018-09-19T10:46:17.044Z,28.07
2018-09-19T10:47:17.321Z,28.04
2018-09-19T10:48:17.682Z,28.00
2018-09-19T10:49:17.858Z,27.95
2018-09-19T10:50:18.083Z,27.91
2018-09-19T10:51:18.467Z,27.87
2018-09-19T10:52:17.569Z,27.83
2018-09-19T10:53:18.809Z,27.81
2018-09-19T10:54:19.035Z,27.79
2018-09-19T10:55:19.260Z,27.77
2018-09-19T10:56:19.567Z,27.74
2018-09-19T10:56:27.613Z,27.60
2018-09-19T10:57:28.746Z,27.60
2018-09-19T10:58:29.240Z,27.61
2018-09-19T10:59:29.452Z,27.60
2018-09-19T11:00:29.909Z,27.60
2018-09-19T11:01:30.194Z,27.61
2018-09-19T11:02:30.660Z,27.62
2018-09-19T11:03:30.853Z,27.64
2018-09-19T11:04:31.092Z,27.67
2018-09-19T11:05:31.355Z,27.69
2018-09-19T11:06:32.215Z,27.71
2018-09-19T11:07:32.453Z,27.73
2018-09-19T11:08:32.711Z,27.74
2018-09-19T11:09:33.166Z,27.75
2018-09-19T11:10:33.466Z,27.75
2018-09-19T11:11:33.688Z,27.76
2018-09-19T11:12:34.333Z,27.76
2018-09-19T11:13:34.613Z,27.77
2018-09-19T11:14:34.940Z,27.78
2018-09-19T11:15:34.991Z,27.79
2018-09-19T11:16:35.113Z,27.79
2018-09-19T11:17:35.258Z,27.81
2018-09-19T11:18:35.618Z,27.81
2018-09-19T11:19:35.788Z,27.81
2018-09-19T11:20:36.188Z,27.81
2018-09-19T11:21:36.367Z,27.81
2018-09-19T11:22:36.653Z,27.81
2018-09-19T11:23:37.473Z,27.81
2018-09-19T11:24:37.672Z,27.80
2018-09-19T11:25:38.110Z,27.79
2018-09-19T11:26:38.450Z,27.79
2018-09-19T11:27:38.988Z,27.79
2018-09-19T11:28:39.317Z,27.80
2018-09-19T11:29:39.467Z,27.80
2018-09-19T11:30:39.844Z,27.81
2018-09-19T11:31:39.980Z,27.82
2018-09-19T11:32:40.147Z,27.85
2018-09-19T11:33:40.444Z,27.87
2018-09-19T11:34:39.533Z,27.88
2018-09-19T11:35:40.766Z,27.89
2018-09-19T11:36:40.945Z,27.90
2018-09-19T11:37:41.068Z,27.91
2018-09-19T11:38:41.317Z,27.92
2018-09-19T11:39:41.455Z,27.92
2018-09-19T11:40:41.590Z,27.91
2018-09-19T11:40:49.942Z,27.97
2018-09-19T11:41:51.210Z,27.97
2018-09-19T11:42:51.373Z,27.97
2018-09-19T11:43:51.711Z,27.97
2018-09-19T11:44:52.104Z,27.96
2018-09-19T11:45:52.432Z,27.97
2018-09-19T11:46:52.630Z,27.98
2018-09-19T11:47:52.925Z,27.99
2018-09-19T11:48:53.643Z,27.99
2018-09-19T11:49:53.829Z,28.01
2018-09-19T11:50:54.066Z,28.02
2018-09-19T11:51:54.476Z,28.04
2018-09-19T11:52:55.105Z,28.06
2018-09-19T11:53:55.305Z,28.08
2018-09-19T11:54:55.599Z,28.11
2018-09-19T11:55:55.783Z,28.14
2018-09-19T11:56:55.842Z,28.17
2018-09-19T11:57:56.261Z,28.20
2018-09-19T11:58:55.399Z,28.23
2018-09-19T11:59:56.851Z,28.26
2018-09-19T12:00:57.128Z,28.29
2018-09-19T12:01:57.424Z,28.32
2018-09-19T12:02:56.607Z,28.35
2018-09-19T12:03:57.985Z,28.37
2018-09-19T12:04:58.277Z,28.39
2018-09-19T12:05:58.860Z,28.42
2018-09-19T12:06:59.592Z,28.44
2018-09-19T12:07:59.743Z,28.46
2018-09-19T12:09:00.036Z,28.48
2018-09-19T12:10:00.521Z,28.49
2018-09-19T12:11:00.941Z,28.51
2018-09-19T12:12:01.373Z,28.52
2018-09-19T12:13:01.809Z,28.54
2018-09-19T12:14:02.035Z,28.55
2018-09-19T12:15:02.330Z,28.56
2018-09-19T12:16:02.556Z,28.57
2018-09-19T12:17:02.877Z,28.57
2018-09-19T12:18:03.637Z,28.56
2018-09-19T12:19:03.970Z,28.57
2018-09-19T12:20:04.371Z,28.56
2018-09-19T12:21:04.888Z,28.57
2018-09-19T12:22:05.171Z,28.57
2018-09-19T12:23:05.433Z,28.58
2018-09-19T12:24:05.639Z,28.59
2018-09-19T12:25:06.220Z,28.60
2018-09-19T12:26:05.850Z,28.59
2018-09-19T12:26:13.900Z,28.66
2018-09-19T12:27:13.892Z,28.66
2018-09-19T12:28:15.525Z,28.66
2018-09-19T12:29:15.909Z,28.65
2018-09-19T12:30:16.160Z,28.65
2018-09-19T12:31:16.504Z,28.65
2018-09-19T12:32:16.787Z,28.66
2018-09-19T12:33:17.599Z,28.66
2018-09-19T12:34:17.136Z,28.66
2018-09-19T12:35:18.450Z,28.66
2018-09-19T12:36:18.739Z,28.67
2018-09-19T12:37:19.062Z,28.67
2018-09-19T12:38:19.517Z,28.68
2018-09-19T12:39:19.781Z,28.69
2018-09-19T12:40:20.064Z,28.70
2018-09-19T12:41:20.564Z,28.71
2018-09-19T12:42:20.810Z,28.72